createdAt,value
2024-02-12T00:00:01.843Z,2447.54
2024-02-12T00:05:01.982Z,2057.986
2024-02-12T00:10:02.052Z,2491.027
2024-02-12T00:15:02.012Z,919.554
2024-02-12T00:20:02.004Z,2008.0900000000001
2024-02-12T00:25:01.991Z,2541.311
2024-02-12T00:30:02.055Z,2588.561
2024-02-12T00:35:02.238Z,2951.6620000000003
2024-02-12T00:40:02.010Z,334.12
2024-02-12T00:45:01.893Z,327.843
2024-02-12T00:50:01.925Z,240.131
2024-02-12T00:55:01.871Z,214.052
2024-02-12T01:00:01.910Z,213.675
2024-02-12T01:05:02.030Z,193.29
2024-02-12T01:10:01.933Z,1868.729
2024-02-12T01:15:01.914Z,2381.457
2024-02-12T01:20:02.026Z,2431.998
2024-02-12T01:25:01.941Z,2560.164
2024-02-12T01:30:01.910Z,2245.7690000000002
2024-02-12T01:35:02.065Z,2300.759
2024-02-12T01:40:02.043Z,2409.253
2024-02-12T01:45:02.287Z,226.823
2024-02-12T01:50:02.001Z,236.875
2024-02-12T01:55:01.980Z,220.603
2024-02-12T02:00:02.043Z,216.05100000000002
2024-02-12T02:05:02.230Z,4878.368
2024-02-12T02:10:02.127Z,6403.344
2024-02-12T02:15:02.257Z,7395.117
2024-02-12T02:20:02.227Z,7388.452
2024-02-12T02:25:01.941Z,7380.526
2024-02-12T02:30:01.927Z,7299.209
2024-02-12T02:35:02.007Z,7435.246
2024-02-12T02:40:01.989Z,7491.323
2024-02-12T02:45:01.961Z,5022.752
2024-02-12T02:50:02.071Z,5039.764
2024-02-12T02:55:02.140Z,5051.325
2024-02-12T03:00:01.958Z,5083.532
2024-02-12T03:05:02.018Z,5116.595
2024-02-12T03:10:01.986Z,4776.542
2024-02-12T03:15:02.229Z,6336.486
2024-02-12T03:20:02.201Z,5828.939
2024-02-12T03:25:02.095Z,4915.039
2024-02-12T03:30:02.135Z,5182.503
2024-02-12T03:35:02.198Z,2622.334
2024-02-12T03:40:02.335Z,2444.317
2024-02-12T03:45:02.020Z,2462.489
2024-02-12T03:50:02.165Z,1362.567
2024-02-12T03:55:02.516Z,311.494
2024-02-12T04:00:02.026Z,304.158
2024-02-12T04:05:02.070Z,286.062
2024-02-12T04:10:02.166Z,189.20600000000002
2024-02-12T04:15:02.016Z,187.595
2024-02-12T04:20:02.113Z,746.3870000000001
2024-02-12T04:25:02.086Z,2389.744
2024-02-12T04:30:02.327Z,2399.772
2024-02-12T04:35:02.293Z,2415.34
2024-02-12T04:40:02.172Z,2490.596
2024-02-12T04:45:02.145Z,2579.022
2024-02-12T04:50:02.233Z,2063.569
2024-02-12T04:55:02.173Z,3019.439
2024-02-12T05:00:02.211Z,387.779
2024-02-12T05:05:02.114Z,188.26
2024-02-12T05:10:02.147Z,209.906
2024-02-12T05:15:02.112Z,367.19800000000004
2024-02-12T05:20:02.187Z,2380.678
2024-02-12T05:25:02.110Z,2396.2110000000002
2024-02-12T05:30:02.102Z,2489.081
2024-02-12T05:35:02.161Z,2565.117
2024-02-12T05:40:02.101Z,2580.384
2024-02-12T05:45:02.142Z,456.295
2024-02-12T05:50:02.157Z,256.173
2024-02-12T05:55:02.144Z,251.046
2024-02-12T06:00:02.145Z,262.491
2024-02-12T06:05:02.235Z,320.311
2024-02-12T06:10:02.179Z,516.2520000000001
2024-02-12T06:15:02.241Z,3343.385
2024-02-12T06:20:02.258Z,3530.8050000000003
2024-02-12T06:25:02.355Z,2811.016
2024-02-12T06:30:02.387Z,2346.599
2024-02-12T06:35:02.374Z,2725.264
2024-02-12T06:40:02.292Z,2713.7290000000003
2024-02-12T06:45:02.371Z,2740.5950000000003
2024-02-12T06:50:02.401Z,2908.706
2024-02-12T06:55:02.164Z,3016.608
2024-02-12T07:00:02.207Z,569.7810000000001
2024-02-12T07:05:02.237Z,541.726
2024-02-12T07:10:02.197Z,624.808
2024-02-12T07:15:02.216Z,645.718
2024-02-12T07:20:02.267Z,635.947
2024-02-12T07:25:02.223Z,1289.66
2024-02-12T07:30:02.204Z,2657.5480000000002
2024-02-12T07:35:02.244Z,3338.254
2024-02-12T07:40:02.259Z,2738.909
2024-02-12T07:45:02.236Z,2727.879
2024-02-12T07:50:02.480Z,2737.293
2024-02-12T07:55:02.356Z,2187.54
2024-02-12T08:00:02.216Z,2893.079
2024-02-12T08:05:02.305Z,3284.415
2024-02-12T08:10:04.712Z,636.703
2024-02-12T08:15:02.289Z,590.787
2024-02-12T08:20:02.420Z,536.418
2024-02-12T08:25:02.308Z,522.816
2024-02-12T08:30:02.323Z,513.645
2024-02-12T08:35:02.296Z,2110.966
2024-02-12T08:40:02.320Z,2680.368
2024-02-12T08:45:02.508Z,2694.544
2024-02-12T08:50:02.446Z,2795.076
2024-02-12T08:55:02.477Z,2816.18
2024-02-12T09:00:02.506Z,2334.0480000000002
2024-02-12T09:05:02.450Z,520.027
2024-02-12T09:10:02.505Z,478.635
2024-02-12T09:15:02.451Z,477.312
2024-02-12T09:20:02.558Z,488.527
2024-02-12T09:25:02.508Z,499.779
2024-02-12T09:30:02.346Z,865.178
2024-02-12T09:35:02.559Z,2686.697
2024-02-12T09:40:02.344Z,2818.143
2024-02-12T09:45:02.399Z,2136.259
2024-02-12T09:50:02.348Z,2787.551
2024-02-12T09:55:02.433Z,2739.888
2024-02-12T10:00:02.361Z,2768.669
2024-02-12T10:05:02.494Z,2788.684
2024-02-12T10:10:02.495Z,3119.9880000000003
2024-02-12T10:15:02.462Z,1480.393
2024-02-12T10:20:02.480Z,290.038
2024-02-12T10:25:02.335Z,322.25600000000003
2024-02-12T10:30:02.377Z,363.479
2024-02-12T10:35:02.438Z,361.708
2024-02-12T10:40:02.394Z,355.641
2024-02-12T10:45:02.390Z,1120.191
2024-02-12T10:50:02.445Z,2454.089
2024-02-12T10:55:02.377Z,2455.728
2024-02-12T11:00:02.485Z,2477.073
2024-02-12T11:05:02.476Z,2495.81
2024-02-12T11:10:02.405Z,1456.769
2024-02-12T11:15:02.384Z,365.598
2024-02-12T11:20:02.661Z,373.54900000000004
2024-02-12T11:25:05.997Z,356.121
2024-02-12T11:30:02.454Z,278.495
2024-02-12T11:35:02.675Z,245.695
2024-02-12T11:40:02.509Z,1206.137
2024-02-12T11:45:02.591Z,2085.552
2024-02-12T11:50:02.611Z,2399.088
2024-02-12T11:55:02.550Z,2444.815
2024-02-12T12:00:02.649Z,2504.502
2024-02-12T12:05:02.661Z,2652.544
2024-02-12T12:10:02.621Z,2666.216
2024-02-12T12:15:02.651Z,2720.435
2024-02-12T12:20:02.611Z,2964.41
2024-02-12T12:25:02.521Z,520.6850000000001
2024-02-12T12:30:02.680Z,270.086
2024-02-12T12:35:02.576Z,270.211
2024-02-12T12:40:02.495Z,248.844
2024-02-12T12:45:02.548Z,247.06900000000002
2024-02-12T12:50:02.527Z,279.067
2024-02-12T12:55:02.494Z,455.586
2024-02-12T13:00:02.606Z,2516.972
2024-02-12T13:05:02.537Z,2522.178
2024-02-12T13:20:02.665Z,2492.708
2024-02-12T13:25:07.221Z,2524.774
2024-02-12T13:30:02.642Z,2546.683
2024-02-12T13:35:02.697Z,1826.267
2024-02-12T13:40:02.736Z,305.658
2024-02-12T13:45:02.568Z,394.627
2024-02-12T13:50:02.620Z,385.332
2024-02-12T13:55:02.526Z,371.15500000000003
2024-02-12T14:00:18.125Z,284.17
2024-02-12T14:05:02.783Z,761.941
2024-02-12T14:10:02.560Z,2071.6150000000002
2024-02-12T14:15:02.568Z,2582.666
2024-02-12T14:20:02.737Z,2589.513
2024-02-12T14:25:03.902Z,2580.507
2024-02-12T14:30:02.658Z,2674.867
2024-02-12T14:35:02.637Z,2974.126
2024-02-12T14:40:02.599Z,2328.096
2024-02-12T14:45:02.689Z,2824.792
2024-02-12T14:50:02.870Z,550.035
2024-02-12T14:55:02.793Z,551.274
2024-02-12T15:00:02.643Z,539.597
2024-02-12T15:05:02.602Z,567.26
2024-02-12T15:10:02.630Z,1955.384
2024-02-12T15:15:02.616Z,2922.974
2024-02-12T15:20:02.752Z,3456.282
2024-02-12T15:25:02.611Z,2863.119
2024-02-12T15:30:02.619Z,2900.824
2024-02-12T15:35:02.628Z,2071.018
2024-02-12T15:40:02.622Z,558.869
2024-02-12T15:45:02.675Z,556.688
2024-02-12T15:50:02.711Z,552.234
2024-02-12T15:55:02.819Z,561.266
2024-02-12T16:00:02.722Z,580.683
2024-02-12T16:05:02.904Z,1255.391
2024-02-12T16:10:02.816Z,2828.554
2024-02-12T16:15:02.687Z,2907.955
2024-02-12T16:20:02.812Z,2921.917
2024-02-12T16:25:02.669Z,2648.2490000000003
2024-02-12T16:30:02.725Z,2317.261
2024-02-12T16:35:02.798Z,2883.18
2024-02-12T16:40:02.710Z,2885.204
2024-02-12T16:45:02.651Z,3087.475
2024-02-12T16:50:02.785Z,1025.074
2024-02-12T16:55:02.772Z,462.846
2024-02-12T17:00:02.859Z,551.819
2024-02-12T17:05:02.719Z,575.268
2024-02-12T17:10:02.816Z,1464.707
2024-02-12T17:15:02.799Z,2552.169
2024-02-12T17:20:02.994Z,3192.607
2024-02-12T17:25:02.905Z,4259.003
2024-02-12T17:30:02.851Z,3712.739
2024-02-12T17:35:02.766Z,2852.9
2024-02-12T17:40:02.690Z,2796.164
2024-02-12T17:45:02.721Z,2920.588
2024-02-12T17:50:03.042Z,2401.209
2024-02-12T17:55:02.857Z,3063.351
2024-02-12T18:00:02.798Z,3192.06
2024-02-12T18:05:02.790Z,3201.989
2024-02-12T18:10:02.751Z,3206.524
2024-02-12T18:15:02.785Z,2840.6130000000003
2024-02-12T18:20:03.098Z,2946.034
2024-02-12T18:25:02.745Z,2901.821
2024-02-12T18:30:02.818Z,2913.264
2024-02-12T18:35:03.001Z,3056.126
2024-02-12T18:40:02.901Z,3282.806
2024-02-12T18:45:03.053Z,2459.8450000000003
2024-02-12T18:50:03.141Z,2976.524
2024-02-12T18:55:02.818Z,641.0120000000001
2024-02-12T19:00:02.828Z,4766.284
2024-02-12T19:05:02.979Z,5300.921
2024-02-12T19:10:02.841Z,5350.134
2024-02-12T19:15:02.866Z,3217.404
2024-02-12T19:20:02.902Z,5251.535
2024-02-12T19:25:02.798Z,5403.092000000001
2024-02-12T19:30:02.822Z,4894.851
2024-02-12T19:35:02.953Z,3634.594
2024-02-12T19:40:05.015Z,3754.851
2024-02-12T19:45:03.090Z,3738.449
2024-02-12T19:50:03.122Z,1256.723
2024-02-12T19:55:03.024Z,1564.5040000000001
2024-02-12T20:00:02.899Z,960.1220000000001
2024-02-12T20:05:02.919Z,765.623
2024-02-12T20:10:02.920Z,791.774
2024-02-12T20:15:03.899Z,1317.681
2024-02-12T20:20:02.866Z,2867.743
2024-02-12T20:25:02.909Z,2872.712
2024-02-12T20:30:02.898Z,2885.992
2024-02-12T20:35:02.905Z,2174.0080000000003
2024-02-12T20:40:02.945Z,2908.401
2024-02-12T20:45:03.035Z,2801.9230000000002
2024-02-12T20:50:03.121Z,2980.794
2024-02-12T20:55:03.095Z,3178.051
2024-02-12T21:00:02.876Z,506.10900000000004
2024-02-12T21:05:02.941Z,4650.119
2024-02-12T21:10:02.894Z,5453.032
2024-02-12T21:15:02.979Z,5804.82
2024-02-12T21:20:03.026Z,5744.081
2024-02-12T21:25:02.903Z,5562.902
2024-02-12T21:30:03.085Z,10430.923
2024-02-12T21:35:03.055Z,9692.023000000001
2024-02-12T21:40:02.936Z,8646.095
2024-02-12T21:45:03.049Z,8804.826000000001
2024-02-12T21:50:03.036Z,8586.349
2024-02-12T21:55:03.047Z,8605.032000000001
2024-02-12T22:00:03.230Z,7834.539
2024-02-12T22:05:03.126Z,8520.529
2024-02-12T22:10:02.961Z,3748.728
2024-02-12T22:15:03.048Z,3765.449
2024-02-12T22:20:03.002Z,3818.549
2024-02-12T22:25:02.948Z,3850.594
2024-02-12T22:30:02.914Z,4131.384
2024-02-12T22:35:02.998Z,2225.6730000000002
2024-02-12T22:40:02.970Z,1624.6200000000001
2024-02-12T22:45:03.069Z,1627.868
2024-02-12T22:50:03.181Z,1643.393
2024-02-12T22:55:03.179Z,1578.93
2024-02-12T23:00:03.355Z,1501.318
2024-02-12T23:05:03.193Z,1534.924
2024-02-12T23:10:03.069Z,3398.5750000000003
2024-02-12T23:15:03.038Z,3722.311
2024-02-12T23:20:03.084Z,3731.28
2024-02-12T23:25:03.049Z,4635.509
2024-02-12T23:30:03.031Z,5532.08
2024-02-12T23:35:03.087Z,6199.131
2024-02-12T23:40:03.067Z,5134.246
2024-02-12T23:45:03.089Z,4020.601
2024-02-12T23:50:03.238Z,2710.73
2024-02-12T23:55:03.162Z,1456.634
